Haci Arif Kaptan — TCQQ — position and weather

sailwx.info

Track history (hours):
 
Tides and Currents Weather Stations Pressure Air Temp Water Temp Dewpoint Dewpoint Depression Visibility Wind Speed Wind Dir Waves Ship Positions

Haci Arif Kaptan

Last reported at 2014-Jul-26 16:32 UTC. Time now 2014-Jul-29 04:41 UTC.
Position N 40°58' E 028°54'.

Length 130 m; draft 4.4 m.

Type: Cargo ship. MMSI: 271000494.

Date/timePositionNaut miles runAvg speedWind from/ knotsBaromVisibWave heightAir tempDewpointWater temp
2014-Jul-26 16:32N 40°58' E 028°54'0 0.0
2014-Jul-26 15:32N 40°58' E 028°54'0 0.0
2014-Jul-26 12:14N 40°58' E 028°54'0 0.0
2014-Jul-26 10:08N 40°58' E 028°54'0 0.0
2014-Jul-26 07:32N 40°58' E 028°54'0 0.0
2014-Jul-26 05:08N 40°58' E 028°54'0 0.0
2014-Jul-26 04:20N 40°58' E 028°54'0 0.0
2014-Jul-26 03:32N 40°58' E 028°54'0 0.0
2014-Jul-25 21:20N 40°58' E 028°54'0 0.0
2014-Jul-25 20:26N 40°58' E 028°54'0 0.0
2014-Jul-25 17:20N 40°58' E 028°54'0 0.0
2014-Jul-25 16:32N 40°58' E 028°54'0 0.0
2014-Jul-25 14:26N 40°58' E 028°54'0 0.0
2014-Jul-25 13:32N 40°58' E 028°54'0 0.0
2014-Jul-25 12:20N 40°58' E 028°54'0 0.0
2014-Jul-25 11:26N 40°58' E 028°54'0 0.0
2014-Jul-25 10:32N 40°58' E 028°54'0 0.0
2014-Jul-25 09:32N 40°58' E 028°54'0 0.0
2014-Jul-25 07:14N 40°58' E 028°54'0 0.0
2014-Jul-25 06:26N 40°58' E 028°54'0 0.0
2014-Jul-25 05:08N 40°58' E 028°54'0 0.0
2014-Jul-25 04:32N 40°58' E 028°54'0 0.0
2014-Jul-25 03:08N 40°58' E 028°54'0 0.0
2014-Jul-25 01:08N 40°58' E 028°54'0 0.0
2014-Jul-25 00:26N 40°58' E 028°54'0 0.0
2014-Jul-24 20:32N 40°58' E 028°54'0 0.0
2014-Jul-24 14:32N 40°58' E 028°54'1 0.5
2014-Jul-24 13:15N 40°58' E 028°55'4 5.5
2014-Jul-24 12:32N 40°54' E 028°56'9 8.6
2014-Jul-24 11:30N 40°50' E 028°45'87 9.3
2014-Jul-24 02:11N 40°29' E 026°55'9 9.5
2014-Jul-24 01:14N 40°25' E 026°44'9 8.9
2014-Jul-24 00:17N 40°19' E 026°36'37 6.2
2014-Jul-23 18:18N 39°56' E 025°58'5 6.9
2014-Jul-23 17:32N 39°52' E 025°54'144 9.0
2014-Jul-23 01:34N 37°43' E 024°31'10 9.5
2014-Jul-23 00:29N 37°35' E 024°24'8 8.7
2014-Jul-22 23:34N 37°28' E 024°18'9 9.0
2014-Jul-22 22:33N 37°22' E 024°09'10 9.0
2014-Jul-22 21:26N 37°14' E 024°02'8 9.2
2014-Jul-22 20:33N 37°08' E 023°55'10 9.5
2014-Jul-22 19:33N 37°00' E 023°48'10 9.7
2014-Jul-22 18:33N 36°53' E 023°40'10 9.9
2014-Jul-22 17:33N 36°45' E 023°32'10 9.9
2014-Jul-22 16:30N 36°37' E 023°24'9 9.6
2014-Jul-22 15:34N 36°29' E 023°18'9 8.8
2014-Jul-22 14:29N 36°22' E 023°11'  
Track history (hours):
 
Tides and Currents Weather Stations Pressure Air Temp Water Temp Dewpoint Dewpoint Depression Visibility Wind Speed Wind Dir Waves Ship Positions

Haci Arif Kaptan

Last reported at 2014-Jul-26 16:32 UTC. Time now 2014-Jul-29 04:41 UTC.
Position N 40°58' E 028°54'.

Length 130 m; draft 4.4 m.

Type: Cargo ship. MMSI: 271000494.

Date/timePositionNaut miles runAvg speedWind from/ knotsBaromVisibWave heightAir tempDewpointWater temp
2014-Jul-26 16:32N 40°58' E 028°54'0 0.0
2014-Jul-26 15:32N 40°58' E 028°54'0 0.0
2014-Jul-26 12:14N 40°58' E 028°54'0 0.0
2014-Jul-26 10:08N 40°58' E 028°54'0 0.0
2014-Jul-26 07:32N 40°58' E 028°54'0 0.0
2014-Jul-26 05:08N 40°58' E 028°54'0 0.0
2014-Jul-26 04:20N 40°58' E 028°54'0 0.0
2014-Jul-26 03:32N 40°58' E 028°54'0 0.0
2014-Jul-25 21:20N 40°58' E 028°54'0 0.0
2014-Jul-25 20:26N 40°58' E 028°54'0 0.0
2014-Jul-25 17:20N 40°58' E 028°54'0 0.0
2014-Jul-25 16:32N 40°58' E 028°54'0 0.0
2014-Jul-25 14:26N 40°58' E 028°54'0 0.0
2014-Jul-25 13:32N 40°58' E 028°54'0 0.0
2014-Jul-25 12:20N 40°58' E 028°54'0 0.0
2014-Jul-25 11:26N 40°58' E 028°54'0 0.0
2014-Jul-25 10:32N 40°58' E 028°54'0 0.0
2014-Jul-25 09:32N 40°58' E 028°54'0 0.0
2014-Jul-25 07:14N 40°58' E 028°54'0 0.0
2014-Jul-25 06:26N 40°58' E 028°54'0 0.0
2014-Jul-25 05:08N 40°58' E 028°54'0 0.0
2014-Jul-25 04:32N 40°58' E 028°54'0 0.0
2014-Jul-25 03:08N 40°58' E 028°54'0 0.0
2014-Jul-25 01:08N 40°58' E 028°54'0 0.0
2014-Jul-25 00:26N 40°58' E 028°54'0 0.0
2014-Jul-24 20:32N 40°58' E 028°54'0 0.0
2014-Jul-24 14:32N 40°58' E 028°54'1 0.5
2014-Jul-24 13:15N 40°58' E 028°55'4 5.5
2014-Jul-24 12:32N 40°54' E 028°56'9 8.6
2014-Jul-24 11:30N 40°50' E 028°45'87 9.3
2014-Jul-24 02:11N 40°29' E 026°55'9 9.5
2014-Jul-24 01:14N 40°25' E 026°44'9 8.9
2014-Jul-24 00:17N 40°19' E 026°36'37 6.2
2014-Jul-23 18:18N 39°56' E 025°58'5 6.9
2014-Jul-23 17:32N 39°52' E 025°54'144 9.0
2014-Jul-23 01:34N 37°43' E 024°31'10 9.5
2014-Jul-23 00:29N 37°35' E 024°24'8 8.7
2014-Jul-22 23:34N 37°28' E 024°18'9 9.0
2014-Jul-22 22:33N 37°22' E 024°09'10 9.0
2014-Jul-22 21:26N 37°14' E 024°02'8 9.2
2014-Jul-22 20:33N 37°08' E 023°55'10 9.5
2014-Jul-22 19:33N 37°00' E 023°48'10 9.7
2014-Jul-22 18:33N 36°53' E 023°40'10 9.9
2014-Jul-22 17:33N 36°45' E 023°32'10 9.9
2014-Jul-22 16:30N 36°37' E 023°24'9 9.6
2014-Jul-22 15:34N 36°29' E 023°18'9 8.8
2014-Jul-22 14:29N 36°22' E 023°11'  

Dump ship's entire track history